Terminal Aerodrome Forecast
Issued by NWS Upton, NY

Home | Current Version | Previous Version | Text Only | Print | Product List | Glossary On
Versions: 1 2 3 4 5 6 7 8 9 10 11 12 13 14 15 16 17 18 19 20 21 22 23 24
340
FTUS41 KOKX 250322 AAA
TAFBDR
TAF AMD
KBDR 250322Z 2503/2524 09012KT P6SM -RA BKN070
      TEMPO 2506/2508 SCT015 BKN030
     FM250800 07016KT 5SM -RA BR SCT007 BKN015
     FM251000 07017G22KT 3SM -RA BR BKN007 OVC010
     FM251500 06020G26KT 1SM -RA BR OVC006=

USA.gov is the U.S. government's official web portal to all federal, state and local government web resources and services.